createdAt,value
2018-08-06T00:00:29.945Z,20.16
2018-08-06T00:01:29.900Z,20.19
2018-08-06T00:02:29.880Z,20.10
2018-08-06T00:03:29.867Z,20.10
2018-08-06T00:04:29.854Z,20.06
2018-08-06T00:05:29.873Z,20.16
2018-08-06T00:06:29.879Z,20.10
2018-08-06T00:07:29.828Z,20.10
2018-08-06T00:08:29.817Z,20.07
2018-08-06T00:09:29.850Z,20.07
2018-08-06T00:10:29.788Z,20.16
2018-08-06T00:11:29.807Z,20.06
2018-08-06T00:12:29.760Z,20.10
2018-08-06T00:13:29.759Z,20.11
2018-08-06T00:14:29.785Z,20.09
2018-08-06T00:15:29.756Z,20.07
2018-08-06T00:16:29.730Z,20.07
2018-08-06T00:17:29.703Z,20.09
2018-08-06T00:18:29.708Z,20.09
2018-08-06T00:19:29.754Z,20.06
2018-08-06T00:20:29.698Z,20.07
2018-08-06T00:21:29.658Z,20.10
2018-08-06T00:22:29.649Z,20.02
2018-08-06T00:23:29.643Z,20.06
2018-08-06T00:24:29.639Z,20.06
2018-08-06T00:25:29.646Z,20.09
2018-08-06T00:26:29.610Z,20.09
2018-08-06T00:27:29.598Z,20.02
2018-08-06T00:28:29.582Z,20.06
2018-08-06T00:29:29.659Z,20.03
2018-08-06T00:30:29.571Z,20.00
2018-08-06T00:31:29.544Z,20.04
2018-08-06T00:32:29.619Z,20.02
2018-08-06T00:33:29.525Z,20.02
2018-08-06T00:34:29.512Z,19.96
2018-08-06T00:35:29.501Z,19.96
2018-08-06T00:36:29.525Z,19.99
2018-08-06T00:37:29.480Z,20.04
2018-08-06T00:38:29.468Z,19.99
2018-08-06T00:39:29.455Z,19.89
2018-08-06T00:40:29.475Z,19.94
2018-08-06T00:41:29.465Z,19.95
2018-08-06T00:42:29.420Z,19.91
2018-08-06T00:43:29.416Z,19.86
2018-08-06T00:44:29.405Z,19.86
2018-08-06T00:45:29.388Z,19.82
2018-08-06T00:46:29.394Z,19.85
2018-08-06T00:47:29.384Z,19.86
2018-08-06T00:48:29.379Z,19.74
2018-08-06T00:49:29.337Z,19.69
2018-08-06T00:50:29.328Z,19.76
2018-08-06T00:51:29.322Z,19.76
2018-08-06T00:52:29.356Z,19.71
2018-08-06T00:53:29.296Z,19.74
2018-08-06T00:54:29.281Z,19.64
2018-08-06T00:55:29.323Z,19.62
2018-08-06T00:56:29.256Z,19.58
2018-08-06T00:57:29.270Z,19.73
2018-08-06T00:58:29.272Z,19.64
2018-08-06T00:59:29.264Z,19.66
2018-08-06T01:00:29.216Z,19.73
2018-08-06T01:01:29.209Z,19.66
2018-08-06T01:02:29.201Z,19.64
2018-08-06T01:03:29.221Z,19.64
2018-08-06T01:04:29.178Z,19.69
2018-08-06T01:05:29.158Z,19.51
2018-08-06T01:06:29.151Z,19.63
2018-08-06T01:07:29.131Z,19.55
2018-08-06T01:08:29.211Z,19.49
2018-08-06T01:09:29.113Z,19.66
2018-08-06T01:10:29.163Z,19.49
2018-08-06T01:11:29.134Z,19.51
2018-08-06T01:12:29.078Z,19.58
2018-08-06T01:13:29.073Z,19.51
2018-08-06T01:14:29.068Z,19.55
2018-08-06T01:15:29.125Z,19.49
2018-08-06T01:16:29.036Z,19.47
2018-08-06T01:17:29.031Z,19.45
2018-08-06T01:18:29.008Z,19.40
2018-08-06T01:19:28.998Z,19.41
2018-08-06T01:20:29.041Z,19.39
2018-08-06T01:21:29.007Z,19.27
2018-08-06T01:22:28.968Z,19.29
2018-08-06T01:23:28.993Z,19.29
2018-08-06T01:24:28.948Z,19.27
2018-08-06T01:25:28.931Z,19.26
2018-08-06T01:26:29.480Z,19.18
2018-08-06T01:27:28.915Z,19.16
2018-08-06T01:28:28.935Z,19.07
2018-08-06T01:29:28.889Z,18.93
2018-08-06T01:30:28.888Z,18.99
2018-08-06T01:31:28.872Z,18.96
2018-08-06T01:32:28.899Z,18.88
2018-08-06T01:33:28.852Z,18.88
2018-08-06T01:34:28.870Z,18.84
2018-08-06T01:35:28.823Z,18.84
2018-08-06T01:36:28.921Z,18.84
2018-08-06T01:37:28.809Z,18.90
2018-08-06T01:38:28.837Z,18.80
2018-08-06T01:39:28.870Z,18.77
2018-08-06T01:40:28.804Z,18.80
2018-08-06T01:41:28.759Z,18.66
2018-08-06T01:42:28.754Z,18.63
2018-08-06T01:43:28.737Z,18.66
2018-08-06T01:44:28.729Z,18.62
2018-08-06T01:45:28.751Z,18.62
2018-08-06T01:46:28.740Z,18.59
2018-08-06T01:47:28.692Z,18.59
2018-08-06T01:48:28.715Z,18.59
2018-08-06T01:49:28.671Z,18.56
2018-08-06T01:50:28.666Z,18.55
2018-08-06T01:51:28.684Z,18.47
2018-08-06T01:52:28.643Z,18.43
2018-08-06T01:53:28.636Z,18.50
2018-08-06T01:54:28.615Z,18.43
2018-08-06T01:55:28.682Z,18.43
2018-08-06T01:56:28.597Z,18.40
2018-08-06T01:57:28.594Z,18.38
2018-08-06T01:58:28.575Z,18.40
2018-08-06T01:59:28.557Z,18.37
2018-08-06T02:00:28.577Z,18.47
2018-08-06T02:01:28.535Z,18.38
2018-08-06T02:02:28.525Z,18.41
2018-08-06T02:03:28.516Z,18.37
2018-08-06T02:04:28.500Z,18.41
2018-08-06T02:05:28.520Z,18.38
2018-08-06T02:06:28.513Z,18.37
2018-08-06T02:07:28.470Z,18.38
2018-08-06T02:08:28.489Z,18.33
2018-08-06T02:09:28.458Z,18.34
2018-08-06T02:10:28.431Z,18.38
2018-08-06T02:11:28.421Z,18.28
2018-08-06T02:12:28.417Z,18.33
2018-08-06T02:13:28.431Z,18.23
2018-08-06T02:14:28.391Z,18.16
2018-08-06T02:15:28.406Z,18.16
2018-08-06T02:16:28.370Z,18.18
2018-08-06T02:17:28.354Z,18.07
2018-08-06T02:18:28.369Z,18.04
2018-08-06T02:19:28.417Z,18.10
2018-08-06T02:20:28.324Z,18.03
2018-08-06T02:21:28.316Z,18.04
2018-08-06T02:22:28.328Z,18.20
2018-08-06T02:23:28.319Z,18.13
2018-08-06T02:24:28.281Z,18.13
2018-08-06T02:25:28.272Z,18.15
2018-08-06T02:26:28.256Z,18.15
2018-08-06T02:27:28.262Z,18.22
2018-08-06T02:28:28.232Z,18.16
2018-08-06T02:29:28.227Z,18.05
2018-08-06T02:30:28.321Z,18.15
2018-08-06T02:31:28.199Z,18.13
2018-08-06T02:32:28.213Z,18.15
2018-08-06T02:33:28.195Z,18.23
2018-08-06T02:34:28.165Z,18.15
2018-08-06T02:35:28.153Z,18.15
2018-08-06T02:36:28.141Z,18.04
2018-08-06T02:37:28.171Z,18.08
2018-08-06T02:38:28.157Z,18.04
2018-08-06T02:39:28.104Z,18.01
2018-08-06T02:40:28.174Z,17.85
2018-08-06T02:41:28.095Z,17.97
2018-08-06T02:42:28.106Z,17.87
2018-08-06T02:43:28.059Z,17.86
2018-08-06T02:44:28.081Z,17.86
2018-08-06T02:45:28.048Z,17.86
2018-08-06T02:46:28.031Z,17.85
2018-08-06T02:47:28.028Z,17.94
2018-08-06T02:48:28.035Z,17.90
2018-08-06T02:49:28.009Z,17.98
2018-08-06T02:50:27.987Z,17.95
2018-08-06T02:51:27.974Z,17.87
2018-08-06T02:52:27.962Z,17.94
2018-08-06T02:53:27.970Z,17.90
2018-08-06T02:54:27.981Z,17.89
2018-08-06T02:55:27.926Z,17.87
2018-08-06T02:56:27.917Z,17.89
2018-08-06T02:57:27.905Z,17.89
2018-08-06T02:58:27.931Z,17.79
2018-08-06T02:59:27.931Z,17.79
2018-08-06T03:00:27.872Z,17.72
2018-08-06T03:01:27.859Z,17.79
2018-08-06T03:02:27.950Z,17.71
2018-08-06T03:03:27.836Z,17.78
2018-08-06T03:04:27.871Z,17.67
2018-08-06T03:05:27.821Z,17.68
2018-08-06T03:06:27.877Z,17.67
2018-08-06T03:07:27.788Z,17.70
2018-08-06T03:08:27.782Z,17.65
2018-08-06T03:09:27.772Z,17.56
2018-08-06T03:10:27.808Z,17.65
2018-08-06T03:11:27.747Z,17.68
2018-08-06T03:12:27.731Z,17.59
2018-08-06T03:13:27.724Z,17.68
2018-08-06T03:14:27.718Z,17.67
2018-08-06T03:15:27.732Z,17.63
2018-08-06T03:16:27.695Z,17.70
2018-08-06T03:17:27.683Z,17.65
2018-08-06T03:18:27.717Z,17.52
2018-08-06T03:19:27.660Z,17.65
2018-08-06T03:20:27.685Z,17.64
2018-08-06T03:21:27.639Z,17.63
2018-08-06T03:22:27.622Z,17.64
2018-08-06T03:23:27.613Z,17.64
2018-08-06T03:24:27.608Z,17.67
2018-08-06T03:25:27.628Z,17.70
2018-08-06T03:26:27.577Z,17.68
2018-08-06T03:27:27.566Z,17.68
2018-08-06T03:28:27.587Z,17.67
2018-08-06T03:29:27.579Z,17.68
2018-08-06T03:30:27.562Z,17.65
2018-08-06T03:31:27.570Z,17.68
2018-08-06T03:32:27.608Z,17.63
2018-08-06T03:33:27.531Z,17.64
2018-08-06T03:34:27.488Z,17.60
2018-08-06T03:35:27.480Z,17.60
2018-08-06T03:36:27.474Z,17.51
2018-08-06T03:37:27.486Z,17.52
2018-08-06T03:38:27.445Z,17.44
2018-08-06T03:39:27.434Z,17.42
2018-08-06T03:40:27.419Z,17.34
2018-08-06T03:41:27.407Z,17.27
2018-08-06T03:42:27.434Z,17.23
2018-08-06T03:43:27.388Z,17.31
2018-08-06T03:44:27.374Z,17.31
2018-08-06T03:45:27.401Z,17.26
2018-08-06T03:46:27.358Z,17.31
2018-08-06T03:47:27.340Z,17.30
2018-08-06T03:48:27.407Z,17.24
2018-08-06T03:49:27.319Z,17.23
2018-08-06T03:50:27.347Z,17.27
2018-08-06T03:51:27.296Z,17.19
2018-08-06T03:52:27.291Z,17.26
2018-08-06T03:53:27.281Z,17.24
2018-08-06T03:54:27.296Z,17.26
2018-08-06T03:55:27.256Z,17.26
2018-08-06T03:56:27.246Z,17.36
2018-08-06T03:57:27.236Z,17.33
2018-08-06T03:58:27.223Z,17.29
2018-08-06T03:59:27.289Z,17.31
2018-08-06T04:00:27.199Z,17.29
2018-08-06T04:01:27.224Z,17.27
2018-08-06T04:02:27.184Z,17.30
2018-08-06T04:03:27.165Z,17.33
2018-08-06T04:04:27.208Z,17.33
2018-08-06T04:05:27.140Z,17.29
2018-08-06T04:06:27.168Z,17.26
2018-08-06T04:07:27.117Z,17.27
2018-08-06T04:08:27.147Z,17.26
2018-08-06T04:09:27.118Z,17.24
2018-08-06T04:10:27.086Z,17.26
2018-08-06T04:11:27.989Z,17.29
2018-08-06T04:12:27.064Z,17.31
2018-08-06T04:13:27.119Z,17.26
2018-08-06T04:14:27.073Z,17.30
2018-08-06T04:15:27.044Z,17.29
2018-08-06T04:16:27.020Z,17.30
2018-08-06T04:17:27.010Z,17.27
2018-08-06T04:18:27.022Z,17.33
2018-08-06T04:19:27.014Z,17.31
2018-08-06T04:20:26.978Z,17.33
2018-08-06T04:21:26.961Z,17.30
2018-08-06T04:22:26.980Z,17.33
2018-08-06T04:23:26.938Z,17.38
2018-08-06T04:24:26.930Z,17.34
2018-08-06T04:25:26.923Z,17.44
2018-08-06T04:26:26.944Z,17.30
2018-08-06T04:27:26.894Z,17.34
2018-08-06T04:28:26.888Z,17.29
2018-08-06T04:29:26.877Z,17.26
2018-08-06T04:30:26.903Z,17.24
2018-08-06T04:31:26.983Z,17.14
2018-08-06T04:32:26.839Z,17.11
2018-08-06T04:33:26.829Z,17.19
2018-08-06T04:34:26.863Z,17.06
2018-08-06T04:35:26.804Z,17.12
2018-08-06T04:36:26.795Z,17.11
2018-08-06T04:37:26.819Z,17.06
2018-08-06T04:38:27.515Z,17.06
2018-08-06T04:39:26.770Z,17.09
2018-08-06T04:40:26.785Z,17.22
2018-08-06T04:41:26.741Z,17.15
2018-08-06T04:42:26.758Z,17.24
2018-08-06T04:43:26.718Z,17.23
2018-08-06T04:44:26.718Z,17.27
2018-08-06T04:45:26.696Z,17.26
2018-08-06T04:46:33.740Z,17.31
2018-08-06T04:47:26.696Z,17.31
2018-08-06T04:48:26.701Z,17.31
2018-08-06T04:49:26.652Z,17.30
2018-08-06T04:50:26.695Z,17.36
2018-08-06T04:51:26.633Z,17.42
2018-08-06T04:52:26.618Z,17.46
2018-08-06T04:53:26.642Z,17.45
2018-08-06T04:54:26.603Z,17.44
2018-08-06T04:55:26.581Z,17.45
2018-08-06T04:56:26.569Z,17.46
2018-08-06T04:57:26.559Z,17.41
2018-08-06T04:58:26.594Z,17.41
2018-08-06T04:59:26.556Z,17.42
2018-08-06T05:00:26.526Z,17.41
2018-08-06T05:01:26.517Z,17.41
2018-08-06T05:02:26.563Z,17.38
2018-08-06T05:03:26.525Z,17.49
2018-08-06T05:04:26.483Z,17.51
2018-08-06T05:05:26.473Z,17.36
2018-08-06T05:06:26.464Z,17.51
2018-08-06T05:07:26.450Z,17.54
2018-08-06T05:08:26.466Z,17.57
2018-08-06T05:09:26.429Z,17.60
2018-08-06T05:10:26.408Z,17.65
2018-08-06T05:11:26.504Z,17.64
2018-08-06T05:12:26.392Z,17.63
2018-08-06T05:13:26.383Z,17.70
2018-08-06T05:14:26.414Z,17.70
2018-08-06T05:15:26.358Z,17.71
2018-08-06T05:16:26.384Z,17.74
2018-08-06T05:17:26.364Z,17.72
2018-08-06T05:18:26.327Z,17.67
2018-08-06T05:19:26.344Z,17.80
2018-08-06T05:20:26.297Z,17.85
2018-08-06T05:21:26.296Z,17.90
2018-08-06T05:22:26.310Z,17.82
2018-08-06T05:23:26.273Z,17.90
2018-08-06T05:24:26.269Z,17.92
2018-08-06T05:25:26.266Z,18.03
2018-08-06T05:26:26.235Z,18.00
2018-08-06T05:27:26.251Z,18.07
2018-08-06T05:28:26.211Z,18.07
2018-08-06T05:29:26.198Z,18.22
2018-08-06T05:30:26.188Z,18.15
2018-08-06T05:31:26.183Z,18.26
2018-08-06T05:32:26.188Z,18.26
2018-08-06T05:33:26.247Z,18.37
2018-08-06T05:34:26.140Z,18.47
2018-08-06T05:35:26.133Z,18.58
2018-08-06T05:36:26.123Z,18.68
2018-08-06T05:37:26.111Z,18.78
2018-08-06T05:38:26.128Z,18.74
2018-08-06T05:39:26.087Z,18.86
2018-08-06T05:40:26.143Z,18.90
2018-08-06T05:41:26.063Z,18.92
2018-08-06T05:42:26.057Z,18.92
2018-08-06T05:43:26.083Z,19.02
2018-08-06T05:44:26.030Z,18.93
2018-08-06T05:45:26.030Z,19.02
2018-08-06T05:46:26.013Z,19.09
2018-08-06T05:47:25.999Z,19.07
2018-08-06T05:48:26.034Z,19.12
2018-08-06T05:49:26.005Z,19.15
2018-08-06T05:50:25.977Z,19.11
2018-08-06T05:51:25.950Z,19.09
2018-08-06T05:52:25.944Z,19.18
2018-08-06T05:53:25.958Z,19.24
2018-08-06T05:54:26.040Z,19.21
2018-08-06T05:55:25.921Z,19.29
2018-08-06T05:56:25.912Z,19.30
2018-08-06T05:57:25.890Z,19.21
2018-08-06T05:58:25.916Z,19.33
2018-08-06T05:59:25.888Z,19.33
2018-08-06T06:00:25.866Z,19.34
2018-08-06T06:01:25.880Z,19.33
2018-08-06T06:02:25.876Z,19.39
2018-08-06T06:03:25.929Z,19.40
2018-08-06T06:04:25.812Z,19.39
2018-08-06T06:05:25.804Z,19.41
2018-08-06T06:06:25.800Z,19.40
2018-08-06T06:07:25.807Z,19.54
2018-08-06T06:08:25.773Z,19.58
2018-08-06T06:09:25.820Z,19.58
2018-08-06T06:10:27.035Z,19.56
2018-08-06T06:11:25.736Z,19.66
2018-08-06T06:12:25.728Z,19.58
2018-08-06T06:13:25.732Z,19.66
2018-08-06T06:14:25.736Z,19.73
2018-08-06T06:15:25.687Z,19.73
2018-08-06T06:16:25.679Z,19.86
2018-08-06T06:17:25.671Z,19.85
2018-08-06T06:18:25.659Z,19.92
2018-08-06T06:19:25.674Z,19.92
2018-08-06T06:20:25.632Z,19.94
2018-08-06T06:21:25.620Z,19.99
2018-08-06T06:22:25.612Z,20.16
2018-08-06T06:23:25.631Z,20.14
2018-08-06T06:24:25.624Z,20.16
2018-08-06T06:25:25.573Z,20.24
2018-08-06T06:26:25.562Z,20.34
2018-08-06T06:27:25.546Z,20.37
2018-08-06T06:28:25.553Z,20.39
2018-08-06T06:29:25.563Z,20.48
2018-08-06T06:30:25.535Z,20.59
2018-08-06T06:31:25.508Z,20.63
2018-08-06T06:32:25.495Z,20.69
2018-08-06T06:33:25.499Z,20.66
2018-08-06T06:34:25.544Z,20.81
2018-08-06T06:35:25.456Z,20.75
2018-08-06T06:36:25.490Z,20.88
2018-08-06T06:37:25.489Z,20.93
2018-08-06T06:38:25.425Z,20.93
2018-08-06T06:39:25.413Z,21.02
2018-08-06T06:40:25.408Z,21.03
2018-08-06T06:41:25.394Z,21.07
2018-08-06T06:42:25.421Z,21.18
2018-08-06T06:43:25.370Z,21.20
2018-08-06T06:44:25.377Z,21.22
2018-08-06T06:45:25.350Z,21.22
2018-08-06T06:46:25.367Z,21.30
2018-08-06T06:47:25.365Z,21.33
2018-08-06T06:48:25.316Z,21.39
2018-08-06T06:49:25.350Z,21.37
2018-08-06T06:50:25.303Z,21.45
2018-08-06T06:51:25.321Z,21.54
2018-08-06T06:52:25.273Z,21.50
2018-08-06T06:53:25.280Z,21.50
2018-08-06T06:54:25.322Z,21.54
2018-08-06T06:55:25.238Z,21.52
2018-08-06T06:56:25.258Z,21.58
2018-08-06T06:57:25.225Z,21.60
2018-08-06T06:58:25.211Z,21.69
2018-08-06T06:59:25.200Z,21.70
2018-08-06T07:00:25.229Z,21.72
2018-08-06T07:01:25.183Z,21.75
2018-08-06T07:02:25.161Z,21.89
2018-08-06T07:03:25.148Z,21.85
2018-08-06T07:04:25.142Z,21.83
2018-08-06T07:05:25.161Z,21.91
2018-08-06T07:06:25.243Z,21.91
2018-08-06T07:07:25.110Z,22.04
2018-08-06T07:08:25.103Z,21.95
2018-08-06T07:09:25.140Z,22.02
2018-08-06T07:10:25.075Z,22.11
2018-08-06T07:11:25.080Z,22.15
2018-08-06T07:12:25.045Z,22.11
2018-08-06T07:13:25.041Z,22.26
2018-08-06T07:14:25.061Z,22.23
2018-08-06T07:15:25.016Z,22.23
2018-08-06T07:16:25.558Z,22.29
2018-08-06T07:17:24.997Z,22.43
2018-08-06T07:18:25.018Z,22.38
2018-08-06T07:19:24.975Z,22.43
2018-08-06T07:20:24.966Z,22.44
2018-08-06T07:21:24.948Z,22.47
2018-08-06T07:22:24.941Z,22.50
2018-08-06T07:23:24.956Z,22.65
2018-08-06T07:24:24.914Z,22.62
2018-08-06T07:25:24.904Z,22.62
2018-08-06T07:26:24.894Z,22.73
2018-08-06T07:27:24.882Z,22.76
2018-08-06T07:28:24.919Z,22.81
2018-08-06T07:29:24.859Z,22.83
2018-08-06T07:30:24.947Z,22.81
2018-08-06T07:31:24.836Z,22.91
2018-08-06T07:32:24.828Z,23.00
2018-08-06T07:33:24.863Z,22.94
2018-08-06T07:34:24.839Z,23.13
2018-08-06T07:35:24.798Z,23.13
2018-08-06T07:36:24.785Z,23.21
2018-08-06T07:37:24.804Z,23.31
2018-08-06T07:38:24.767Z,23.24
2018-08-06T07:39:24.830Z,23.31
2018-08-06T07:40:24.743Z,23.31
2018-08-06T07:41:24.736Z,23.37
2018-08-06T07:42:24.717Z,23.37
2018-08-06T07:43:24.710Z,23.48
2018-08-06T07:44:24.733Z,23.54
2018-08-06T07:45:24.699Z,23.62
2018-08-06T07:46:24.670Z,23.71
2018-08-06T07:47:24.662Z,23.71
2018-08-06T07:48:24.681Z,23.73
2018-08-06T07:49:24.663Z,23.86
2018-08-06T07:50:24.659Z,23.93
2018-08-06T07:51:24.619Z,23.98
2018-08-06T07:52:24.605Z,23.99
2018-08-06T07:53:24.624Z,24.06
2018-08-06T07:54:24.584Z,24.16
2018-08-06T07:55:24.608Z,24.14
2018-08-06T07:56:24.562Z,24.32
2018-08-06T07:57:24.550Z,24.35
2018-08-06T07:58:24.536Z,24.39
2018-08-06T07:59:24.569Z,24.48
2018-08-06T08:00:24.516Z,24.48
2018-08-06T08:01:24.501Z,24.57
2018-08-06T08:02:24.489Z,24.69
2018-08-06T08:03:24.484Z,24.77
2018-08-06T08:04:24.500Z,24.89
2018-08-06T08:05:24.515Z,24.88
2018-08-06T08:06:24.457Z,24.86
2018-08-06T08:07:24.439Z,24.88
2018-08-06T08:08:24.429Z,25.04
2018-08-06T08:09:24.413Z,25.08
2018-08-06T08:10:24.447Z,25.08
2018-08-06T08:11:24.397Z,25.08
2018-08-06T08:12:24.393Z,25.22
2018-08-06T08:13:24.373Z,25.26
2018-08-06T08:14:24.364Z,25.35
2018-08-06T08:15:24.379Z,25.41
2018-08-06T08:16:24.356Z,25.51
2018-08-06T08:17:24.335Z,25.41
2018-08-06T08:18:24.330Z,25.53
2018-08-06T08:19:24.369Z,25.63
2018-08-06T08:20:24.389Z,25.66
2018-08-06T08:21:24.296Z,25.70
2018-08-06T08:22:24.295Z,25.73
2018-08-06T08:23:24.285Z,25.80
2018-08-06T08:24:24.292Z,25.88
2018-08-06T08:25:24.243Z,26.02
2018-08-06T08:26:24.259Z,26.02
2018-08-06T08:27:24.223Z,26.06
2018-08-06T08:28:24.211Z,26.00
2018-08-06T08:29:24.256Z,26.07
2018-08-06T08:30:24.208Z,26.15
2018-08-06T08:31:24.172Z,26.19
2018-08-06T08:32:24.182Z,26.21
2018-08-06T08:33:24.164Z,26.28
2018-08-06T08:34:24.167Z,26.21
2018-08-06T08:35:24.130Z,26.33
2018-08-06T08:36:24.117Z,26.33
2018-08-06T08:37:24.108Z,26.47
2018-08-06T08:38:24.099Z,26.55
2018-08-06T08:39:24.125Z,26.51
2018-08-06T08:40:24.076Z,26.45
2018-08-06T08:41:24.063Z,26.37
2018-08-06T08:42:24.051Z,26.38
2018-08-06T08:43:24.046Z,26.34
2018-08-06T08:44:24.080Z,26.33
2018-08-06T08:45:24.105Z,26.29
2018-08-06T08:46:24.011Z,26.22
2018-08-06T08:47:23.998Z,26.34
2018-08-06T08:48:23.989Z,26.34
2018-08-06T08:49:24.031Z,26.28
2018-08-06T08:50:23.993Z,26.43
2018-08-06T08:51:23.956Z,26.48
2018-08-06T08:52:23.955Z,26.53
2018-08-06T08:53:23.934Z,26.55
2018-08-06T08:54:23.922Z,26.56
2018-08-06T08:55:23.956Z,26.58
2018-08-06T08:56:23.899Z,26.68
2018-08-06T08:57:23.889Z,26.71
2018-08-06T08:58:23.877Z,26.74
2018-08-06T08:59:23.865Z,26.80
2018-08-06T09:00:23.903Z,26.85
2018-08-06T09:01:23.888Z,26.90
2018-08-06T09:02:23.836Z,27.00
2018-08-06T09:03:23.857Z,26.99
2018-08-06T09:04:23.817Z,26.99
2018-08-06T09:05:24.625Z,27.00
2018-08-06T09:06:23.886Z,27.03
2018-08-06T09:07:23.827Z,27.05
2018-08-06T09:08:23.819Z,27.05
2018-08-06T09:09:23.763Z,27.03
2018-08-06T09:10:23.744Z,27.12
2018-08-06T09:11:23.734Z,27.11
2018-08-06T09:12:23.722Z,27.14
2018-08-06T09:13:23.738Z,27.18
2018-08-06T09:14:23.710Z,27.08
2018-08-06T09:15:23.713Z,27.15
2018-08-06T09:16:23.723Z,27.14
2018-08-06T09:17:23.670Z,27.27
2018-08-06T09:18:23.662Z,27.30
2018-08-06T09:19:23.645Z,27.35
2018-08-06T09:20:23.658Z,27.39
2018-08-06T09:21:23.624Z,27.48
2018-08-06T09:22:23.618Z,27.51
2018-08-06T09:23:23.623Z,27.60
2018-08-06T09:24:23.592Z,27.70
2018-08-06T09:25:23.628Z,27.73
2018-08-06T09:26:23.568Z,27.70
2018-08-06T09:27:23.559Z,27.85
2018-08-06T09:28:23.548Z,27.80
2018-08-06T09:29:23.538Z,27.85
2018-08-06T09:30:23.573Z,27.86
2018-08-06T09:31:23.514Z,28.00
2018-08-06T09:32:23.501Z,28.04
2018-08-06T09:33:23.496Z,28.07
2018-08-06T09:34:23.479Z,28.01
2018-08-06T09:35:23.509Z,28.00
2018-08-06T09:36:23.499Z,28.04
2018-08-06T09:37:23.447Z,28.15
2018-08-06T09:38:23.441Z,28.04
2018-08-06T09:39:23.433Z,28.14
2018-08-06T09:40:23.424Z,28.12
2018-08-06T09:41:23.447Z,28.10
2018-08-06T09:42:23.393Z,28.27
2018-08-06T09:43:23.385Z,28.19
2018-08-06T09:44:23.387Z,28.25
2018-08-06T09:45:23.415Z,28.29
2018-08-06T09:46:23.354Z,28.33
2018-08-06T09:47:23.335Z,28.32
2018-08-06T09:48:23.330Z,28.32
2018-08-06T09:49:23.315Z,28.37
2018-08-06T09:50:23.334Z,28.37
2018-08-06T09:51:23.296Z,28.44
2018-08-06T09:52:23.323Z,28.33
2018-08-06T09:53:23.268Z,28.51
2018-08-06T09:54:23.268Z,28.51
2018-08-06T09:55:23.251Z,28.48
2018-08-06T09:56:23.240Z,28.49
2018-08-06T09:57:23.265Z,28.49
2018-08-06T09:58:23.273Z,28.48
2018-08-06T09:59:23.211Z,28.66
2018-08-06T10:00:23.230Z,28.70
2018-08-06T10:01:23.182Z,28.70
2018-08-06T10:02:23.216Z,28.67
2018-08-06T10:03:23.190Z,28.63
2018-08-06T10:04:23.152Z,28.75
2018-08-06T10:05:23.144Z,28.72
2018-08-06T10:06:23.318Z,28.79
2018-08-06T10:07:23.161Z,28.81
2018-08-06T10:08:23.110Z,28.86
2018-08-06T10:09:23.122Z,28.86
2018-08-06T10:10:23.087Z,28.86
2018-08-06T10:11:23.079Z,28.84
2018-08-06T10:12:23.099Z,28.88
2018-08-06T10:13:23.056Z,28.85
2018-08-06T10:14:23.044Z,28.85
2018-08-06T10:15:23.032Z,28.91
2018-08-06T10:16:23.026Z,28.89
2018-08-06T10:17:23.039Z,29.01
2018-08-06T10:18:23.012Z,28.96
2018-08-06T10:19:23.131Z,28.98
2018-08-06T10:20:22.977Z,29.10
2018-08-06T10:21:23.043Z,29.01
2018-08-06T10:22:22.981Z,29.16
2018-08-06T10:23:22.975Z,29.12
2018-08-06T10:24:22.940Z,29.19
2018-08-06T10:25:22.940Z,29.29
2018-08-06T10:26:22.919Z,29.20
2018-08-06T10:27:22.907Z,29.31
2018-08-06T10:28:22.917Z,29.24
2018-08-06T10:29:22.914Z,29.31
2018-08-06T10:30:22.974Z,29.35
2018-08-06T10:31:22.860Z,29.41
2018-08-06T10:32:22.858Z,29.47
2018-08-06T10:33:22.877Z,29.51
2018-08-06T10:34:22.833Z,29.50
2018-08-06T10:35:22.822Z,29.56
2018-08-06T10:36:22.844Z,29.56
2018-08-06T10:37:22.828Z,29.56
2018-08-06T10:38:22.794Z,29.53
2018-08-06T10:39:22.782Z,29.63
2018-08-06T10:40:22.839Z,29.57
2018-08-06T10:41:22.785Z,29.61
2018-08-06T10:42:22.743Z,29.60
2018-08-06T10:43:22.729Z,29.68
2018-08-06T10:44:22.720Z,29.61
2018-08-06T10:45:22.715Z,29.68
2018-08-06T10:46:22.732Z,29.72
2018-08-06T10:47:22.721Z,29.76
2018-08-06T10:48:22.721Z,29.81
2018-08-06T10:49:22.686Z,29.81
2018-08-06T10:50:22.656Z,29.78
2018-08-06T10:51:22.672Z,29.81
2018-08-06T10:52:22.647Z,29.86
2018-08-06T10:53:22.648Z,29.84
2018-08-06T10:54:22.655Z,29.81
2018-08-06T10:55:22.606Z,29.91
2018-08-06T10:56:22.590Z,29.86
2018-08-06T10:57:22.578Z,29.86
2018-08-06T10:58:22.742Z,29.78
2018-08-06T10:59:22.556Z,29.84
2018-08-06T11:00:22.544Z,29.86
2018-08-06T11:01:22.575Z,29.78
2018-08-06T11:02:22.522Z,29.76
2018-08-06T11:03:22.549Z,29.87
2018-08-06T11:04:22.511Z,29.75
2018-08-06T11:05:22.493Z,29.76
2018-08-06T11:06:22.479Z,29.82
2018-08-06T11:07:22.466Z,29.78
2018-08-06T11:08:22.495Z,29.79
2018-08-06T11:09:22.449Z,29.78
2018-08-06T11:10:22.434Z,29.81
2018-08-06T11:11:22.434Z,29.79
2018-08-06T11:12:22.416Z,29.86
2018-08-06T11:13:22.436Z,29.86
2018-08-06T11:14:22.441Z,29.82
2018-08-06T11:15:22.381Z,29.94
2018-08-06T11:16:22.399Z,29.93
2018-08-06T11:17:22.396Z,30.00
2018-08-06T11:18:22.350Z,30.02
2018-08-06T11:19:22.339Z,30.05
2018-08-06T11:20:22.372Z,30.10
2018-08-06T11:21:22.337Z,30.15
2018-08-06T11:22:22.301Z,30.23
2018-08-06T11:23:22.296Z,30.19
2018-08-06T11:24:22.278Z,30.18
2018-08-06T11:25:22.348Z,30.16
2018-08-06T11:26:22.293Z,30.19
2018-08-06T11:27:22.287Z,30.28
2018-08-06T11:28:22.349Z,30.37
2018-08-06T11:29:22.229Z,30.32
2018-08-06T11:30:22.224Z,30.44
2018-08-06T11:31:22.338Z,30.43
2018-08-06T11:32:22.194Z,30.47
2018-08-06T11:33:22.186Z,30.43
2018-08-06T11:34:22.202Z,30.40
2018-08-06T11:35:22.166Z,30.35
2018-08-06T11:36:22.152Z,30.44
2018-08-06T11:37:22.143Z,30.44
2018-08-06T11:38:22.134Z,30.44
2018-08-06T11:39:22.156Z,30.40
2018-08-06T11:40:22.123Z,30.57
2018-08-06T11:41:22.098Z,30.61
2018-08-06T11:42:22.086Z,30.59
2018-08-06T11:43:22.079Z,30.53
2018-08-06T11:44:22.097Z,30.54
2018-08-06T11:45:22.083Z,30.54
2018-08-06T11:46:22.070Z,30.50
2018-08-06T11:47:22.038Z,30.44
2018-08-06T11:48:22.024Z,30.35
2018-08-06T11:49:22.013Z,30.53
2018-08-06T11:50:22.041Z,30.50
2018-08-06T11:51:21.990Z,30.54
2018-08-06T11:52:22.006Z,30.62
2018-08-06T11:53:21.968Z,30.59
2018-08-06T11:54:22.643Z,30.66
2018-08-06T11:55:21.952Z,30.62
2018-08-06T11:56:21.942Z,30.65
2018-08-06T11:57:21.997Z,30.68
2018-08-06T11:58:21.917Z,30.68
2018-08-06T11:59:21.917Z,30.65
2018-08-06T12:00:21.929Z,30.66
2018-08-06T12:01:21.891Z,30.66
2018-08-06T12:02:21.873Z,30.75
2018-08-06T12:03:21.886Z,30.80
2018-08-06T12:04:21.855Z,30.73
2018-08-06T12:05:21.969Z,30.73
2018-08-06T12:06:21.836Z,30.77
2018-08-06T12:07:21.822Z,30.73
2018-08-06T12:08:21.866Z,30.72
2018-08-06T12:09:21.806Z,30.75
2018-08-06T12:10:21.836Z,30.65
2018-08-06T12:11:21.802Z,30.68
2018-08-06T12:12:21.770Z,30.72
2018-08-06T12:13:21.838Z,30.69
2018-08-06T12:14:21.759Z,30.81
2018-08-06T12:15:21.888Z,30.75
2018-08-06T12:16:21.733Z,30.87
2018-08-06T12:17:21.738Z,30.87
2018-08-06T12:18:21.708Z,30.94
2018-08-06T12:19:21.703Z,30.96
2018-08-06T12:20:21.734Z,30.99
2018-08-06T12:21:21.743Z,30.92
2018-08-06T12:22:21.678Z,30.90
2018-08-06T12:23:21.682Z,30.88
2018-08-06T12:24:21.647Z,30.85
2018-08-06T12:25:21.640Z,30.83
2018-08-06T12:26:21.693Z,30.85
2018-08-06T12:27:21.664Z,30.84
2018-08-06T12:28:21.640Z,30.97
2018-08-06T12:29:21.595Z,31.06
2018-08-06T12:30:21.587Z,31.18
2018-08-06T12:31:21.568Z,31.28
2018-08-06T12:32:21.565Z,31.42
2018-08-06T12:33:21.585Z,31.40
2018-08-06T12:34:21.609Z,31.39
2018-08-06T12:35:21.530Z,31.59
2018-08-06T12:36:21.520Z,31.61
2018-08-06T12:37:21.508Z,31.64
2018-08-06T12:38:21.524Z,31.76
2018-08-06T12:39:21.519Z,31.94
2018-08-06T12:40:21.483Z,32.01
2018-08-06T12:41:21.466Z,32.16
2018-08-06T12:42:21.488Z,32.30
2018-08-06T12:43:21.444Z,32.22
2018-08-06T12:44:21.433Z,32.45
2018-08-06T12:45:21.504Z,32.73
2018-08-06T12:46:21.520Z,32.92
2018-08-06T12:47:21.438Z,33.12
2018-08-06T12:48:21.392Z,33.40
2018-08-06T12:49:21.416Z,33.59
2018-08-06T12:50:21.373Z,33.77
2018-08-06T12:51:21.382Z,34.05
2018-08-06T12:52:21.355Z,34.21